<?xml version="1.0" encoding="UTF-8" standalone="no" ?>
<gpx xmlns="http://www.topografix.com/GPX/1/1" xmlns:xsi="http://www.w3.org/2001/XMLSchema-instance" xsi:schemaLocation="http://www.topografix.com/GPX/1/1 http://www.topografix.com/GPX/1/1/gpx.xsd" version="1.1" creator="VisuGPX - https://www.visugpx.com">
  <metadata>
    <name>Footing Rhône_3</name>
    <desc><![CDATA[La distance d'un petit footing étant acquise, on va pouvoir bosser !]]></desc>
  </metadata>
  <trk>
    <name><![CDATA[Sequence 1]]></name>
    <trkseg>
      <trkpt lat="45.75371" lon="4.82899">
        <ele>115</ele>
        <time>2016-09-20T05:20:39Z</time>
      </trkpt>
      <trkpt lat="45.75371" lon="4.82899">
        <ele>117</ele>
        <time>2016-09-20T05:20:40Z</time>
      </trkpt>
      <trkpt lat="45.75373" lon="4.829">
        <ele>117</ele>
        <time>2016-09-20T05:20:46Z</time>
      </trkpt>
      <trkpt lat="45.75374" lon="4.82902">
        <ele>120</ele>
        <time>2016-09-20T05:20:54Z</time>
      </trkpt>
      <trkpt lat="45.75376" lon="4.82904">
        <ele>124</ele>
        <time>2016-09-20T05:21:03Z</time>
      </trkpt>
      <trkpt lat="45.75377" lon="4.82904">
        <ele>124</ele>
        <time>2016-09-20T05:21:04Z</time>
      </trkpt>
      <trkpt lat="45.75387" lon="4.82951">
        <ele>118</ele>
        <time>2016-09-20T05:21:12Z</time>
      </trkpt>
      <trkpt lat="45.75404" lon="4.82997">
        <ele>123</ele>
        <time>2016-09-20T05:21:20Z</time>
      </trkpt>
      <trkpt lat="45.7541" lon="4.82989">
        <ele>125</ele>
        <time>2016-09-20T05:21:22Z</time>
      </trkpt>
      <trkpt lat="45.75436" lon="4.83004">
        <ele>136</ele>
        <time>2016-09-20T05:21:32Z</time>
      </trkpt>
      <trkpt lat="45.75447" lon="4.83012">
        <ele>126</ele>
        <time>2016-09-20T05:21:37Z</time>
      </trkpt>
      <trkpt lat="45.75447" lon="4.83038">
        <ele>127</ele>
        <time>2016-09-20T05:21:44Z</time>
      </trkpt>
      <trkpt lat="45.75443" lon="4.83044">
        <ele>129</ele>
        <time>2016-09-20T05:21:46Z</time>
      </trkpt>
      <trkpt lat="45.7543" lon="4.8308">
        <ele>119</ele>
        <time>2016-09-20T05:21:57Z</time>
      </trkpt>
      <trkpt lat="45.75424" lon="4.83095">
        <ele>119</ele>
        <time>2016-09-20T05:22:01Z</time>
      </trkpt>
      <trkpt lat="45.75418" lon="4.83103">
        <ele>120</ele>
        <time>2016-09-20T05:22:04Z</time>
      </trkpt>
      <trkpt lat="45.75406" lon="4.83121">
        <ele>121</ele>
        <time>2016-09-20T05:22:10Z</time>
      </trkpt>
      <trkpt lat="45.75398" lon="4.83147">
        <ele>122</ele>
        <time>2016-09-20T05:22:21Z</time>
      </trkpt>
      <trkpt lat="45.75397" lon="4.83149">
        <ele>122</ele>
        <time>2016-09-20T05:22:22Z</time>
      </trkpt>
      <trkpt lat="45.75386" lon="4.83165">
        <ele>117</ele>
        <time>2016-09-20T05:22:31Z</time>
      </trkpt>
      <trkpt lat="45.75383" lon="4.83206">
        <ele>120</ele>
        <time>2016-09-20T05:22:39Z</time>
      </trkpt>
      <trkpt lat="45.75381" lon="4.83211">
        <ele>123</ele>
        <time>2016-09-20T05:22:43Z</time>
      </trkpt>
      <trkpt lat="45.75369" lon="4.83218">
        <ele>123</ele>
        <time>2016-09-20T05:22:51Z</time>
      </trkpt>
      <trkpt lat="45.75368" lon="4.8322">
        <ele>123</ele>
        <time>2016-09-20T05:22:52Z</time>
      </trkpt>
      <trkpt lat="45.75361" lon="4.83235">
        <ele>125</ele>
        <time>2016-09-20T05:22:58Z</time>
      </trkpt>
      <trkpt lat="45.75355" lon="4.83256">
        <ele>126</ele>
        <time>2016-09-20T05:23:05Z</time>
      </trkpt>
      <trkpt lat="45.75344" lon="4.83265">
        <ele>127</ele>
        <time>2016-09-20T05:23:10Z</time>
      </trkpt>
      <trkpt lat="45.75336" lon="4.83293">
        <ele>129</ele>
        <time>2016-09-20T05:23:20Z</time>
      </trkpt>
      <trkpt lat="45.75335" lon="4.83312">
        <ele>125</ele>
        <time>2016-09-20T05:23:24Z</time>
      </trkpt>
      <trkpt lat="45.75331" lon="4.83331">
        <ele>124</ele>
        <time>2016-09-20T05:23:28Z</time>
      </trkpt>
      <trkpt lat="45.75324" lon="4.83352">
        <ele>124</ele>
        <time>2016-09-20T05:23:36Z</time>
      </trkpt>
      <trkpt lat="45.75315" lon="4.83372">
        <ele>131</ele>
        <time>2016-09-20T05:23:44Z</time>
      </trkpt>
      <trkpt lat="45.75315" lon="4.83366">
        <ele>132</ele>
        <time>2016-09-20T05:23:51Z</time>
      </trkpt>
      <trkpt lat="45.75315" lon="4.83366">
        <ele>134</ele>
        <time>2016-09-20T05:23:56Z</time>
      </trkpt>
      <trkpt lat="45.75316" lon="4.83365">
        <ele>134</ele>
        <time>2016-09-20T05:23:58Z</time>
      </trkpt>
      <trkpt lat="45.75316" lon="4.83365">
        <ele>135</ele>
        <time>2016-09-20T05:24:05Z</time>
      </trkpt>
      <trkpt lat="45.75316" lon="4.83365">
        <ele>136</ele>
        <time>2016-09-20T05:24:10Z</time>
      </trkpt>
      <trkpt lat="45.75317" lon="4.83366">
        <ele>139</ele>
        <time>2016-09-20T05:24:21Z</time>
      </trkpt>
      <trkpt lat="45.75318" lon="4.83366">
        <ele>139</ele>
        <time>2016-09-20T05:24:26Z</time>
      </trkpt>
      <trkpt lat="45.75318" lon="4.83366">
        <ele>139</ele>
        <time>2016-09-20T05:24:28Z</time>
      </trkpt>
      <trkpt lat="45.75318" lon="4.83366">
        <ele>139</ele>
        <time>2016-09-20T05:24:34Z</time>
      </trkpt>
      <trkpt lat="45.75313" lon="4.83385">
        <ele>143</ele>
        <time>2016-09-20T05:24:40Z</time>
      </trkpt>
      <trkpt lat="45.75308" lon="4.83404">
        <ele>149</ele>
        <time>2016-09-20T05:24:50Z</time>
      </trkpt>
      <trkpt lat="45.75309" lon="4.83406">
        <ele>153</ele>
        <time>2016-09-20T05:24:55Z</time>
      </trkpt>
      <trkpt lat="45.75309" lon="4.83407">
        <ele>155</ele>
        <time>2016-09-20T05:24:59Z</time>
      </trkpt>
      <trkpt lat="45.75309" lon="4.83406">
        <ele>156</ele>
        <time>2016-09-20T05:25:05Z</time>
      </trkpt>
      <trkpt lat="45.75304" lon="4.83416">
        <ele>160</ele>
        <time>2016-09-20T05:25:10Z</time>
      </trkpt>
      <trkpt lat="45.75293" lon="4.83436">
        <ele>164</ele>
        <time>2016-09-20T05:25:16Z</time>
      </trkpt>
      <trkpt lat="45.75278" lon="4.83464">
        <ele>167</ele>
        <time>2016-09-20T05:25:26Z</time>
      </trkpt>
      <trkpt lat="45.75276" lon="4.8347">
        <ele>169</ele>
        <time>2016-09-20T05:25:28Z</time>
      </trkpt>
      <trkpt lat="45.75269" lon="4.83488">
        <ele>163</ele>
        <time>2016-09-20T05:25:34Z</time>
      </trkpt>
      <trkpt lat="45.75261" lon="4.83515">
        <ele>163</ele>
        <time>2016-09-20T05:25:42Z</time>
      </trkpt>
      <trkpt lat="45.75258" lon="4.83528">
        <ele>165</ele>
        <time>2016-09-20T05:25:46Z</time>
      </trkpt>
      <trkpt lat="45.75253" lon="4.83545">
        <ele>164</ele>
        <time>2016-09-20T05:25:52Z</time>
      </trkpt>
      <trkpt lat="45.75242" lon="4.83573">
        <ele>166</ele>
        <time>2016-09-20T05:26:03Z</time>
      </trkpt>
      <trkpt lat="45.7524" lon="4.83578">
        <ele>166</ele>
        <time>2016-09-20T05:26:05Z</time>
      </trkpt>
      <trkpt lat="45.75231" lon="4.83598">
        <ele>167</ele>
        <time>2016-09-20T05:26:11Z</time>
      </trkpt>
      <trkpt lat="45.75227" lon="4.83614">
        <ele>167</ele>
        <time>2016-09-20T05:26:16Z</time>
      </trkpt>
      <trkpt lat="45.75218" lon="4.83639">
        <ele>165</ele>
        <time>2016-09-20T05:26:24Z</time>
      </trkpt>
      <trkpt lat="45.75212" lon="4.83651">
        <ele>167</ele>
        <time>2016-09-20T05:26:28Z</time>
      </trkpt>
      <trkpt lat="45.75205" lon="4.83671">
        <ele>167</ele>
        <time>2016-09-20T05:26:34Z</time>
      </trkpt>
      <trkpt lat="45.7519" lon="4.8367">
        <ele>169</ele>
        <time>2016-09-20T05:26:40Z</time>
      </trkpt>
      <trkpt lat="45.75163" lon="4.83657">
        <ele>173</ele>
        <time>2016-09-20T05:26:51Z</time>
      </trkpt>
      <trkpt lat="45.75161" lon="4.83655">
        <ele>174</ele>
        <time>2016-09-20T05:26:52Z</time>
      </trkpt>
      <trkpt lat="45.7514" lon="4.83646">
        <ele>182</ele>
        <time>2016-09-20T05:27:01Z</time>
      </trkpt>
      <trkpt lat="45.75134" lon="4.8364">
        <ele>183</ele>
        <time>2016-09-20T05:27:04Z</time>
      </trkpt>
      <trkpt lat="45.75124" lon="4.83627">
        <ele>187</ele>
        <time>2016-09-20T05:27:10Z</time>
      </trkpt>
      <trkpt lat="45.75113" lon="4.83609">
        <ele>189</ele>
        <time>2016-09-20T05:27:18Z</time>
      </trkpt>
      <trkpt lat="45.75106" lon="4.83598">
        <ele>195</ele>
        <time>2016-09-20T05:27:24Z</time>
      </trkpt>
      <trkpt lat="45.75095" lon="4.83589">
        <ele>195</ele>
        <time>2016-09-20T05:27:29Z</time>
      </trkpt>
      <trkpt lat="45.7508" lon="4.83568">
        <ele>204</ele>
        <time>2016-09-20T05:27:39Z</time>
      </trkpt>
      <trkpt lat="45.75075" lon="4.83561">
        <ele>206</ele>
        <time>2016-09-20T05:27:41Z</time>
      </trkpt>
      <trkpt lat="45.75062" lon="4.83537">
        <ele>208</ele>
        <time>2016-09-20T05:27:49Z</time>
      </trkpt>
      <trkpt lat="45.75057" lon="4.83513">
        <ele>207</ele>
        <time>2016-09-20T05:27:57Z</time>
      </trkpt>
      <trkpt lat="45.75047" lon="4.83506">
        <ele>208</ele>
        <time>2016-09-20T05:28:01Z</time>
      </trkpt>
      <trkpt lat="45.75024" lon="4.83496">
        <ele>213</ele>
        <time>2016-09-20T05:28:10Z</time>
      </trkpt>
      <trkpt lat="45.75022" lon="4.83495">
        <ele>213</ele>
        <time>2016-09-20T05:28:11Z</time>
      </trkpt>
      <trkpt lat="45.75002" lon="4.83482">
        <ele>211</ele>
        <time>2016-09-20T05:28:21Z</time>
      </trkpt>
      <trkpt lat="45.74998" lon="4.83474">
        <ele>207</ele>
        <time>2016-09-20T05:28:25Z</time>
      </trkpt>
      <trkpt lat="45.7499" lon="4.83465">
        <ele>207</ele>
        <time>2016-09-20T05:28:30Z</time>
      </trkpt>
      <trkpt lat="45.74969" lon="4.83453">
        <ele>205</ele>
        <time>2016-09-20T05:28:38Z</time>
      </trkpt>
      <trkpt lat="45.74959" lon="4.83447">
        <ele>205</ele>
        <time>2016-09-20T05:28:42Z</time>
      </trkpt>
      <trkpt lat="45.7495" lon="4.83433">
        <ele>206</ele>
        <time>2016-09-20T05:28:48Z</time>
      </trkpt>
      <trkpt lat="45.74928" lon="4.83413">
        <ele>208</ele>
        <time>2016-09-20T05:28:59Z</time>
      </trkpt>
      <trkpt lat="45.74925" lon="4.83412">
        <ele>208</ele>
        <time>2016-09-20T05:29:00Z</time>
      </trkpt>
      <trkpt lat="45.74908" lon="4.83403">
        <ele>208</ele>
        <time>2016-09-20T05:29:08Z</time>
      </trkpt>
      <trkpt lat="45.74901" lon="4.83394">
        <ele>207</ele>
        <time>2016-09-20T05:29:12Z</time>
      </trkpt>
      <trkpt lat="45.74888" lon="4.83381">
        <ele>212</ele>
        <time>2016-09-20T05:29:19Z</time>
      </trkpt>
      <trkpt lat="45.74879" lon="4.83371">
        <ele>216</ele>
        <time>2016-09-20T05:29:24Z</time>
      </trkpt>
      <trkpt lat="45.74861" lon="4.83354">
        <ele>213</ele>
        <time>2016-09-20T05:29:31Z</time>
      </trkpt>
      <trkpt lat="45.74846" lon="4.83346">
        <ele>213</ele>
        <time>2016-09-20T05:29:36Z</time>
      </trkpt>
      <trkpt lat="45.74843" lon="4.83331">
        <ele>212</ele>
        <time>2016-09-20T05:29:42Z</time>
      </trkpt>
      <trkpt lat="45.74828" lon="4.83326">
        <ele>209</ele>
        <time>2016-09-20T05:29:48Z</time>
      </trkpt>
      <trkpt lat="45.74811" lon="4.83321">
        <ele>214</ele>
        <time>2016-09-20T05:29:59Z</time>
      </trkpt>
      <trkpt lat="45.74803" lon="4.83316">
        <ele>216</ele>
        <time>2016-09-20T05:30:01Z</time>
      </trkpt>
      <trkpt lat="45.74786" lon="4.83301">
        <ele>214</ele>
        <time>2016-09-20T05:30:06Z</time>
      </trkpt>
      <trkpt lat="45.74759" lon="4.83277">
        <ele>213</ele>
        <time>2016-09-20T05:30:16Z</time>
      </trkpt>
      <trkpt lat="45.74754" lon="4.83274">
        <ele>212</ele>
        <time>2016-09-20T05:30:18Z</time>
      </trkpt>
      <trkpt lat="45.74745" lon="4.83264">
        <ele>212</ele>
        <time>2016-09-20T05:30:24Z</time>
      </trkpt>
      <trkpt lat="45.74739" lon="4.83254">
        <ele>211</ele>
        <time>2016-09-20T05:30:30Z</time>
      </trkpt>
      <trkpt lat="45.74724" lon="4.83243">
        <ele>214</ele>
        <time>2016-09-20T05:30:37Z</time>
      </trkpt>
      <trkpt lat="45.74707" lon="4.83237">
        <ele>212</ele>
        <time>2016-09-20T05:30:43Z</time>
      </trkpt>
      <trkpt lat="45.74685" lon="4.83228">
        <ele>200</ele>
        <time>2016-09-20T05:30:50Z</time>
      </trkpt>
      <trkpt lat="45.7466" lon="4.83212">
        <ele>199</ele>
        <time>2016-09-20T05:30:58Z</time>
      </trkpt>
      <trkpt lat="45.74656" lon="4.83207">
        <ele>198</ele>
        <time>2016-09-20T05:31:00Z</time>
      </trkpt>
      <trkpt lat="45.74638" lon="4.8318">
        <ele>200</ele>
        <time>2016-09-20T05:31:10Z</time>
      </trkpt>
      <trkpt lat="45.74635" lon="4.83178">
        <ele>198</ele>
        <time>2016-09-20T05:31:12Z</time>
      </trkpt>
      <trkpt lat="45.74629" lon="4.83169">
        <ele>195</ele>
        <time>2016-09-20T05:31:18Z</time>
      </trkpt>
      <trkpt lat="45.74619" lon="4.83161">
        <ele>205</ele>
        <time>2016-09-20T05:31:24Z</time>
      </trkpt>
      <trkpt lat="45.74585" lon="4.83147">
        <ele>208</ele>
        <time>2016-09-20T05:31:34Z</time>
      </trkpt>
      <trkpt lat="45.74579" lon="4.83142">
        <ele>207</ele>
        <time>2016-09-20T05:31:36Z</time>
      </trkpt>
      <trkpt lat="45.74567" lon="4.83127">
        <ele>204</ele>
        <time>2016-09-20T05:31:42Z</time>
      </trkpt>
      <trkpt lat="45.74553" lon="4.8311">
        <ele>203</ele>
        <time>2016-09-20T05:31:48Z</time>
      </trkpt>
      <trkpt lat="45.74549" lon="4.83101">
        <ele>200</ele>
        <time>2016-09-20T05:31:54Z</time>
      </trkpt>
      <trkpt lat="45.74538" lon="4.83088">
        <ele>201</ele>
        <time>2016-09-20T05:32:01Z</time>
      </trkpt>
      <trkpt lat="45.74528" lon="4.83073">
        <ele>206</ele>
        <time>2016-09-20T05:32:06Z</time>
      </trkpt>
      <trkpt lat="45.74511" lon="4.83054">
        <ele>201</ele>
        <time>2016-09-20T05:32:14Z</time>
      </trkpt>
      <trkpt lat="45.74503" lon="4.83043">
        <ele>195</ele>
        <time>2016-09-20T05:32:20Z</time>
      </trkpt>
      <trkpt lat="45.74486" lon="4.83029">
        <ele>193</ele>
        <time>2016-09-20T05:32:28Z</time>
      </trkpt>
      <trkpt lat="45.74481" lon="4.83027">
        <ele>191</ele>
        <time>2016-09-20T05:32:30Z</time>
      </trkpt>
      <trkpt lat="45.74463" lon="4.83007">
        <ele>195</ele>
        <time>2016-09-20T05:32:38Z</time>
      </trkpt>
      <trkpt lat="45.74445" lon="4.82994">
        <ele>191</ele>
        <time>2016-09-20T05:32:45Z</time>
      </trkpt>
      <trkpt lat="45.74438" lon="4.82987">
        <ele>193</ele>
        <time>2016-09-20T05:32:48Z</time>
      </trkpt>
      <trkpt lat="45.74426" lon="4.82974">
        <ele>194</ele>
        <time>2016-09-20T05:32:54Z</time>
      </trkpt>
      <trkpt lat="45.74418" lon="4.82964">
        <ele>192</ele>
        <time>2016-09-20T05:33:00Z</time>
      </trkpt>
      <trkpt lat="45.74399" lon="4.82952">
        <ele>192</ele>
        <time>2016-09-20T05:33:09Z</time>
      </trkpt>
      <trkpt lat="45.74389" lon="4.82944">
        <ele>192</ele>
        <time>2016-09-20T05:33:13Z</time>
      </trkpt>
      <trkpt lat="45.74381" lon="4.82937">
        <ele>191</ele>
        <time>2016-09-20T05:33:18Z</time>
      </trkpt>
      <trkpt lat="45.74364" lon="4.82928">
        <ele>189</ele>
        <time>2016-09-20T05:33:24Z</time>
      </trkpt>
      <trkpt lat="45.74345" lon="4.8291">
        <ele>194</ele>
        <time>2016-09-20T05:33:31Z</time>
      </trkpt>
      <trkpt lat="45.7433" lon="4.82883">
        <ele>202</ele>
        <time>2016-09-20T05:33:41Z</time>
      </trkpt>
      <trkpt lat="45.74323" lon="4.82877">
        <ele>206</ele>
        <time>2016-09-20T05:33:44Z</time>
      </trkpt>
      <trkpt lat="45.74301" lon="4.82868">
        <ele>202</ele>
        <time>2016-09-20T05:33:52Z</time>
      </trkpt>
      <trkpt lat="45.74293" lon="4.82863">
        <ele>200</ele>
        <time>2016-09-20T05:33:55Z</time>
      </trkpt>
      <trkpt lat="45.74272" lon="4.82843">
        <ele>201</ele>
        <time>2016-09-20T05:34:05Z</time>
      </trkpt>
      <trkpt lat="45.74268" lon="4.82837">
        <ele>203</ele>
        <time>2016-09-20T05:34:07Z</time>
      </trkpt>
      <trkpt lat="45.74256" lon="4.8282">
        <ele>201</ele>
        <time>2016-09-20T05:34:14Z</time>
      </trkpt>
      <trkpt lat="45.74243" lon="4.82813">
        <ele>198</ele>
        <time>2016-09-20T05:34:19Z</time>
      </trkpt>
      <trkpt lat="45.74225" lon="4.82798">
        <ele>197</ele>
        <time>2016-09-20T05:34:28Z</time>
      </trkpt>
      <trkpt lat="45.74216" lon="4.82792">
        <ele>195</ele>
        <time>2016-09-20T05:34:32Z</time>
      </trkpt>
      <trkpt lat="45.74207" lon="4.82782">
        <ele>192</ele>
        <time>2016-09-20T05:34:37Z</time>
      </trkpt>
      <trkpt lat="45.74188" lon="4.82762">
        <ele>191</ele>
        <time>2016-09-20T05:34:47Z</time>
      </trkpt>
      <trkpt lat="45.74183" lon="4.8276">
        <ele>190</ele>
        <time>2016-09-20T05:34:49Z</time>
      </trkpt>
      <trkpt lat="45.74171" lon="4.82751">
        <ele>185</ele>
        <time>2016-09-20T05:34:55Z</time>
      </trkpt>
      <trkpt lat="45.74156" lon="4.82743">
        <ele>188</ele>
        <time>2016-09-20T05:35:02Z</time>
      </trkpt>
      <trkpt lat="45.74142" lon="4.82733">
        <ele>188</ele>
        <time>2016-09-20T05:35:08Z</time>
      </trkpt>
      <trkpt lat="45.7413" lon="4.82725">
        <ele>187</ele>
        <time>2016-09-20T05:35:13Z</time>
      </trkpt>
      <trkpt lat="45.74113" lon="4.82712">
        <ele>190</ele>
        <time>2016-09-20T05:35:19Z</time>
      </trkpt>
      <trkpt lat="45.74084" lon="4.82703">
        <ele>183</ele>
        <time>2016-09-20T05:35:28Z</time>
      </trkpt>
      <trkpt lat="45.74072" lon="4.82688">
        <ele>184</ele>
        <time>2016-09-20T05:35:34Z</time>
      </trkpt>
      <trkpt lat="45.74069" lon="4.82677">
        <ele>182</ele>
        <time>2016-09-20T05:35:38Z</time>
      </trkpt>
      <trkpt lat="45.74063" lon="4.82666">
        <ele>182</ele>
        <time>2016-09-20T05:35:43Z</time>
      </trkpt>
      <trkpt lat="45.74051" lon="4.82658">
        <ele>186</ele>
        <time>2016-09-20T05:35:49Z</time>
      </trkpt>
      <trkpt lat="45.74031" lon="4.82647">
        <ele>183</ele>
        <time>2016-09-20T05:35:57Z</time>
      </trkpt>
      <trkpt lat="45.74012" lon="4.82638">
        <ele>179</ele>
        <time>2016-09-20T05:36:04Z</time>
      </trkpt>
      <trkpt lat="45.74005" lon="4.82634">
        <ele>180</ele>
        <time>2016-09-20T05:36:07Z</time>
      </trkpt>
      <trkpt lat="45.73989" lon="4.82621">
        <ele>181</ele>
        <time>2016-09-20T05:36:13Z</time>
      </trkpt>
      <trkpt lat="45.73978" lon="4.82606">
        <ele>183</ele>
        <time>2016-09-20T05:36:19Z</time>
      </trkpt>
      <trkpt lat="45.73966" lon="4.82599">
        <ele>187</ele>
        <time>2016-09-20T05:36:25Z</time>
      </trkpt>
      <trkpt lat="45.7395" lon="4.82585">
        <ele>190</ele>
        <time>2016-09-20T05:36:34Z</time>
      </trkpt>
      <trkpt lat="45.73939" lon="4.82562">
        <ele>195</ele>
        <time>2016-09-20T05:36:40Z</time>
      </trkpt>
      <trkpt lat="45.73923" lon="4.82545">
        <ele>200</ele>
        <time>2016-09-20T05:36:46Z</time>
      </trkpt>
      <trkpt lat="45.73914" lon="4.8254">
        <ele>201</ele>
        <time>2016-09-20T05:36:49Z</time>
      </trkpt>
      <trkpt lat="45.73894" lon="4.8252">
        <ele>205</ele>
        <time>2016-09-20T05:37:00Z</time>
      </trkpt>
      <trkpt lat="45.73887" lon="4.82513">
        <ele>207</ele>
        <time>2016-09-20T05:37:05Z</time>
      </trkpt>
      <trkpt lat="45.73883" lon="4.82508">
        <ele>207</ele>
        <time>2016-09-20T05:37:07Z</time>
      </trkpt>
      <trkpt lat="45.73861" lon="4.82479">
        <ele>212</ele>
        <time>2016-09-20T05:37:18Z</time>
      </trkpt>
      <trkpt lat="45.73857" lon="4.82479">
        <ele>213</ele>
        <time>2016-09-20T05:37:19Z</time>
      </trkpt>
      <trkpt lat="45.73839" lon="4.82483">
        <ele>196</ele>
        <time>2016-09-20T05:37:26Z</time>
      </trkpt>
      <trkpt lat="45.73831" lon="4.82476">
        <ele>196</ele>
        <time>2016-09-20T05:37:31Z</time>
      </trkpt>
      <trkpt lat="45.73818" lon="4.82471">
        <ele>196</ele>
        <time>2016-09-20T05:37:37Z</time>
      </trkpt>
      <trkpt lat="45.73807" lon="4.82458">
        <ele>195</ele>
        <time>2016-09-20T05:37:43Z</time>
      </trkpt>
      <trkpt lat="45.7379" lon="4.82441">
        <ele>194</ele>
        <time>2016-09-20T05:37:52Z</time>
      </trkpt>
      <trkpt lat="45.73782" lon="4.82427">
        <ele>194</ele>
        <time>2016-09-20T05:37:57Z</time>
      </trkpt>
      <trkpt lat="45.7377" lon="4.82408">
        <ele>197</ele>
        <time>2016-09-20T05:38:05Z</time>
      </trkpt>
      <trkpt lat="45.73768" lon="4.82403">
        <ele>199</ele>
        <time>2016-09-20T05:38:07Z</time>
      </trkpt>
      <trkpt lat="45.73744" lon="4.8239">
        <ele>200</ele>
        <time>2016-09-20T05:38:15Z</time>
      </trkpt>
      <trkpt lat="45.73733" lon="4.82387">
        <ele>200</ele>
        <time>2016-09-20T05:38:19Z</time>
      </trkpt>
      <trkpt lat="45.73721" lon="4.8238">
        <ele>203</ele>
        <time>2016-09-20T05:38:25Z</time>
      </trkpt>
      <trkpt lat="45.73699" lon="4.82363">
        <ele>203</ele>
        <time>2016-09-20T05:38:34Z</time>
      </trkpt>
      <trkpt lat="45.73687" lon="4.82359">
        <ele>202</ele>
        <time>2016-09-20T05:38:37Z</time>
      </trkpt>
      <trkpt lat="45.73668" lon="4.8235">
        <ele>195</ele>
        <time>2016-09-20T05:38:43Z</time>
      </trkpt>
      <trkpt lat="45.73642" lon="4.82345">
        <ele>197</ele>
        <time>2016-09-20T05:38:52Z</time>
      </trkpt>
      <trkpt lat="45.73638" lon="4.8234">
        <ele>198</ele>
        <time>2016-09-20T05:38:55Z</time>
      </trkpt>
      <trkpt lat="45.73614" lon="4.82316">
        <ele>199</ele>
        <time>2016-09-20T05:39:06Z</time>
      </trkpt>
      <trkpt lat="45.73611" lon="4.82313">
        <ele>199</ele>
        <time>2016-09-20T05:39:07Z</time>
      </trkpt>
      <trkpt lat="45.73599" lon="4.82301">
        <ele>198</ele>
        <time>2016-09-20T05:39:13Z</time>
      </trkpt>
      <trkpt lat="45.73583" lon="4.82291">
        <ele>196</ele>
        <time>2016-09-20T05:39:19Z</time>
      </trkpt>
      <trkpt lat="45.73554" lon="4.82296">
        <ele>195</ele>
        <time>2016-09-20T05:39:27Z</time>
      </trkpt>
      <trkpt lat="45.7355" lon="4.82268">
        <ele>201</ele>
        <time>2016-09-20T05:39:35Z</time>
      </trkpt>
      <trkpt lat="45.73547" lon="4.82263">
        <ele>203</ele>
        <time>2016-09-20T05:39:37Z</time>
      </trkpt>
      <trkpt lat="45.73529" lon="4.82241">
        <ele>202</ele>
        <time>2016-09-20T05:39:47Z</time>
      </trkpt>
      <trkpt lat="45.73524" lon="4.82238">
        <ele>202</ele>
        <time>2016-09-20T05:39:49Z</time>
      </trkpt>
      <trkpt lat="45.73496" lon="4.82229">
        <ele>193</ele>
        <time>2016-09-20T05:39:59Z</time>
      </trkpt>
      <trkpt lat="45.73491" lon="4.82226">
        <ele>193</ele>
        <time>2016-09-20T05:40:01Z</time>
      </trkpt>
      <trkpt lat="45.73473" lon="4.82219">
        <ele>199</ele>
        <time>2016-09-20T05:40:07Z</time>
      </trkpt>
      <trkpt lat="45.73456" lon="4.82211">
        <ele>198</ele>
        <time>2016-09-20T05:40:13Z</time>
      </trkpt>
      <trkpt lat="45.73429" lon="4.82202">
        <ele>195</ele>
        <time>2016-09-20T05:40:24Z</time>
      </trkpt>
      <trkpt lat="45.73422" lon="4.82198">
        <ele>194</ele>
        <time>2016-09-20T05:40:28Z</time>
      </trkpt>
      <trkpt lat="45.73416" lon="4.82197">
        <ele>197</ele>
        <time>2016-09-20T05:40:31Z</time>
      </trkpt>
      <trkpt lat="45.73389" lon="4.822">
        <ele>203</ele>
        <time>2016-09-20T05:40:42Z</time>
      </trkpt>
      <trkpt lat="45.73373" lon="4.82201">
        <ele>205</ele>
        <time>2016-09-20T05:40:47Z</time>
      </trkpt>
      <trkpt lat="45.73368" lon="4.82202">
        <ele>205</ele>
        <time>2016-09-20T05:40:49Z</time>
      </trkpt>
      <trkpt lat="45.73355" lon="4.82199">
        <ele>200</ele>
        <time>2016-09-20T05:40:55Z</time>
      </trkpt>
      <trkpt lat="45.73342" lon="4.82196">
        <ele>195</ele>
        <time>2016-09-20T05:41:01Z</time>
      </trkpt>
      <trkpt lat="45.73294" lon="4.82192">
        <ele>197</ele>
        <time>2016-09-20T05:41:19Z</time>
      </trkpt>
      <trkpt lat="45.73291" lon="4.82187">
        <ele>195</ele>
        <time>2016-09-20T05:41:21Z</time>
      </trkpt>
      <trkpt lat="45.73279" lon="4.82178">
        <ele>201</ele>
        <time>2016-09-20T05:41:26Z</time>
      </trkpt>
      <trkpt lat="45.73254" lon="4.82168">
        <ele>206</ele>
        <time>2016-09-20T05:41:37Z</time>
      </trkpt>
      <trkpt lat="45.73239" lon="4.82156">
        <ele>206</ele>
        <time>2016-09-20T05:41:42Z</time>
      </trkpt>
      <trkpt lat="45.73237" lon="4.82137">
        <ele>202</ele>
        <time>2016-09-20T05:41:49Z</time>
      </trkpt>
      <trkpt lat="45.73235" lon="4.82136">
        <ele>202</ele>
        <time>2016-09-20T05:41:51Z</time>
      </trkpt>
      <trkpt lat="45.73218" lon="4.82126">
        <ele>201</ele>
        <time>2016-09-20T05:42:00Z</time>
      </trkpt>
      <trkpt lat="45.73202" lon="4.82125">
        <ele>198</ele>
        <time>2016-09-20T05:42:04Z</time>
      </trkpt>
      <trkpt lat="45.73178" lon="4.8212">
        <ele>198</ele>
        <time>2016-09-20T05:42:12Z</time>
      </trkpt>
      <trkpt lat="45.73166" lon="4.82122">
        <ele>196</ele>
        <time>2016-09-20T05:42:15Z</time>
      </trkpt>
      <trkpt lat="45.73141" lon="4.82123">
        <ele>187</ele>
        <time>2016-09-20T05:42:21Z</time>
      </trkpt>
      <trkpt lat="45.73116" lon="4.82122">
        <ele>187</ele>
        <time>2016-09-20T05:42:28Z</time>
      </trkpt>
      <trkpt lat="45.73097" lon="4.82119">
        <ele>189</ele>
        <time>2016-09-20T05:42:33Z</time>
      </trkpt>
      <trkpt lat="45.73081" lon="4.82114">
        <ele>186</ele>
        <time>2016-09-20T05:42:39Z</time>
      </trkpt>
      <trkpt lat="45.73069" lon="4.82114">
        <ele>186</ele>
        <time>2016-09-20T05:42:45Z</time>
      </trkpt>
      <trkpt lat="45.73052" lon="4.82109">
        <ele>184</ele>
        <time>2016-09-20T05:42:54Z</time>
      </trkpt>
      <trkpt lat="45.73041" lon="4.82107">
        <ele>184</ele>
        <time>2016-09-20T05:42:59Z</time>
      </trkpt>
      <trkpt lat="45.73032" lon="4.82105">
        <ele>180</ele>
        <time>2016-09-20T05:43:03Z</time>
      </trkpt>
      <trkpt lat="45.73022" lon="4.82098">
        <ele>181</ele>
        <time>2016-09-20T05:43:09Z</time>
      </trkpt>
      <trkpt lat="45.73006" lon="4.82122">
        <ele>176</ele>
        <time>2016-09-20T05:43:20Z</time>
      </trkpt>
      <trkpt lat="45.7301" lon="4.82132">
        <ele>173</ele>
        <time>2016-09-20T05:43:23Z</time>
      </trkpt>
      <trkpt lat="45.73012" lon="4.82145">
        <ele>178</ele>
        <time>2016-09-20T05:43:27Z</time>
      </trkpt>
      <trkpt lat="45.72998" lon="4.82167">
        <ele>170</ele>
        <time>2016-09-20T05:43:34Z</time>
      </trkpt>
      <trkpt lat="45.72981" lon="4.82171">
        <ele>174</ele>
        <time>2016-09-20T05:43:39Z</time>
      </trkpt>
      <trkpt lat="45.72961" lon="4.82161">
        <ele>179</ele>
        <time>2016-09-20T05:43:45Z</time>
      </trkpt>
      <trkpt lat="45.72942" lon="4.82149">
        <ele>181</ele>
        <time>2016-09-20T05:43:51Z</time>
      </trkpt>
      <trkpt lat="45.72932" lon="4.82132">
        <ele>179</ele>
        <time>2016-09-20T05:43:57Z</time>
      </trkpt>
      <trkpt lat="45.7292" lon="4.82102">
        <ele>178</ele>
        <time>2016-09-20T05:44:08Z</time>
      </trkpt>
      <trkpt lat="45.72914" lon="4.82099">
        <ele>178</ele>
        <time>2016-09-20T05:44:11Z</time>
      </trkpt>
      <trkpt lat="45.72896" lon="4.82101">
        <ele>179</ele>
        <time>2016-09-20T05:44:20Z</time>
      </trkpt>
      <trkpt lat="45.72894" lon="4.821">
        <ele>180</ele>
        <time>2016-09-20T05:44:21Z</time>
      </trkpt>
      <trkpt lat="45.72866" lon="4.82105">
        <ele>187</ele>
        <time>2016-09-20T05:44:32Z</time>
      </trkpt>
      <trkpt lat="45.72862" lon="4.82111">
        <ele>187</ele>
        <time>2016-09-20T05:44:35Z</time>
      </trkpt>
      <trkpt lat="45.72855" lon="4.8211">
        <ele>191</ele>
        <time>2016-09-20T05:44:39Z</time>
      </trkpt>
      <trkpt lat="45.7284" lon="4.82103">
        <ele>193</ele>
        <time>2016-09-20T05:44:45Z</time>
      </trkpt>
      <trkpt lat="45.72813" lon="4.82092">
        <ele>196</ele>
        <time>2016-09-20T05:44:55Z</time>
      </trkpt>
      <trkpt lat="45.72811" lon="4.82087">
        <ele>198</ele>
        <time>2016-09-20T05:44:57Z</time>
      </trkpt>
      <trkpt lat="45.7279" lon="4.8209">
        <ele>203</ele>
        <time>2016-09-20T05:45:08Z</time>
      </trkpt>
      <trkpt lat="45.72786" lon="4.8209">
        <ele>202</ele>
        <time>2016-09-20T05:45:09Z</time>
      </trkpt>
      <trkpt lat="45.7277" lon="4.82099">
        <ele>200</ele>
        <time>2016-09-20T05:45:15Z</time>
      </trkpt>
      <trkpt lat="45.72743" lon="4.82102">
        <ele>201</ele>
        <time>2016-09-20T05:45:26Z</time>
      </trkpt>
      <trkpt lat="45.72739" lon="4.821">
        <ele>199</ele>
        <time>2016-09-20T05:45:27Z</time>
      </trkpt>
      <trkpt lat="45.7271" lon="4.82101">
        <ele>197</ele>
        <time>2016-09-20T05:45:35Z</time>
      </trkpt>
      <trkpt lat="45.72703" lon="4.82098">
        <ele>196</ele>
        <time>2016-09-20T05:45:39Z</time>
      </trkpt>
      <trkpt lat="45.72683" lon="4.82089">
        <ele>190</ele>
        <time>2016-09-20T05:45:45Z</time>
      </trkpt>
      <trkpt lat="45.72655" lon="4.82089">
        <ele>193</ele>
        <time>2016-09-20T05:45:54Z</time>
      </trkpt>
      <trkpt lat="45.72638" lon="4.82089">
        <ele>191</ele>
        <time>2016-09-20T05:46:02Z</time>
      </trkpt>
      <trkpt lat="45.72635" lon="4.8209">
        <ele>190</ele>
        <time>2016-09-20T05:46:03Z</time>
      </trkpt>
      <trkpt lat="45.72609" lon="4.821">
        <ele>186</ele>
        <time>2016-09-20T05:46:13Z</time>
      </trkpt>
      <trkpt lat="45.72605" lon="4.821">
        <ele>187</ele>
        <time>2016-09-20T05:46:15Z</time>
      </trkpt>
      <trkpt lat="45.72587" lon="4.8209">
        <ele>189</ele>
        <time>2016-09-20T05:46:22Z</time>
      </trkpt>
      <trkpt lat="45.72569" lon="4.82092">
        <ele>193</ele>
        <time>2016-09-20T05:46:29Z</time>
      </trkpt>
      <trkpt lat="45.72557" lon="4.82095">
        <ele>194</ele>
        <time>2016-09-20T05:46:35Z</time>
      </trkpt>
      <trkpt lat="45.72552" lon="4.82101">
        <ele>193</ele>
        <time>2016-09-20T05:46:40Z</time>
      </trkpt>
      <trkpt lat="45.72542" lon="4.82104">
        <ele>192</ele>
        <time>2016-09-20T05:46:46Z</time>
      </trkpt>
      <trkpt lat="45.72525" lon="4.82111">
        <ele>194</ele>
        <time>2016-09-20T05:46:51Z</time>
      </trkpt>
      <trkpt lat="45.72519" lon="4.82121">
        <ele>191</ele>
        <time>2016-09-20T05:46:57Z</time>
      </trkpt>
      <trkpt lat="45.72523" lon="4.82133">
        <ele>188</ele>
        <time>2016-09-20T05:47:03Z</time>
      </trkpt>
      <trkpt lat="45.72552" lon="4.82111">
        <ele>189</ele>
        <time>2016-09-20T05:47:13Z</time>
      </trkpt>
      <trkpt lat="45.72565" lon="4.82098">
        <ele>188</ele>
        <time>2016-09-20T05:47:19Z</time>
      </trkpt>
      <trkpt lat="45.7257" lon="4.82097">
        <ele>184</ele>
        <time>2016-09-20T05:47:21Z</time>
      </trkpt>
      <trkpt lat="45.72593" lon="4.82092">
        <ele>182</ele>
        <time>2016-09-20T05:47:29Z</time>
      </trkpt>
      <trkpt lat="45.72602" lon="4.8209">
        <ele>182</ele>
        <time>2016-09-20T05:47:33Z</time>
      </trkpt>
      <trkpt lat="45.72615" lon="4.82088">
        <ele>182</ele>
        <time>2016-09-20T05:47:39Z</time>
      </trkpt>
      <trkpt lat="45.72635" lon="4.82083">
        <ele>181</ele>
        <time>2016-09-20T05:47:48Z</time>
      </trkpt>
      <trkpt lat="45.72645" lon="4.82085">
        <ele>183</ele>
        <time>2016-09-20T05:47:51Z</time>
      </trkpt>
      <trkpt lat="45.72667" lon="4.82085">
        <ele>182</ele>
        <time>2016-09-20T05:47:59Z</time>
      </trkpt>
      <trkpt lat="45.72674" lon="4.82082">
        <ele>180</ele>
        <time>2016-09-20T05:48:03Z</time>
      </trkpt>
      <trkpt lat="45.7269" lon="4.82082">
        <ele>184</ele>
        <time>2016-09-20T05:48:09Z</time>
      </trkpt>
      <trkpt lat="45.72725" lon="4.82083">
        <ele>191</ele>
        <time>2016-09-20T05:48:20Z</time>
      </trkpt>
      <trkpt lat="45.72728" lon="4.82082">
        <ele>190</ele>
        <time>2016-09-20T05:48:21Z</time>
      </trkpt>
      <trkpt lat="45.72746" lon="4.82082">
        <ele>191</ele>
        <time>2016-09-20T05:48:28Z</time>
      </trkpt>
      <trkpt lat="45.72766" lon="4.82087">
        <ele>189</ele>
        <time>2016-09-20T05:48:34Z</time>
      </trkpt>
      <trkpt lat="45.72776" lon="4.82087">
        <ele>190</ele>
        <time>2016-09-20T05:48:41Z</time>
      </trkpt>
      <trkpt lat="45.72798" lon="4.82079">
        <ele>191</ele>
        <time>2016-09-20T05:48:48Z</time>
      </trkpt>
      <trkpt lat="45.72807" lon="4.82074">
        <ele>185</ele>
        <time>2016-09-20T05:48:51Z</time>
      </trkpt>
      <trkpt lat="45.72816" lon="4.82073">
        <ele>183</ele>
        <time>2016-09-20T05:48:57Z</time>
      </trkpt>
      <trkpt lat="45.72823" lon="4.82086">
        <ele>186</ele>
        <time>2016-09-20T05:49:03Z</time>
      </trkpt>
      <trkpt lat="45.72836" lon="4.821">
        <ele>183</ele>
        <time>2016-09-20T05:49:13Z</time>
      </trkpt>
      <trkpt lat="45.72841" lon="4.82102">
        <ele>185</ele>
        <time>2016-09-20T05:49:15Z</time>
      </trkpt>
      <trkpt lat="45.72864" lon="4.82099">
        <ele>180</ele>
        <time>2016-09-20T05:49:25Z</time>
      </trkpt>
      <trkpt lat="45.7287" lon="4.82096">
        <ele>181</ele>
        <time>2016-09-20T05:49:27Z</time>
      </trkpt>
      <trkpt lat="45.72889" lon="4.82092">
        <ele>184</ele>
        <time>2016-09-20T05:49:33Z</time>
      </trkpt>
      <trkpt lat="45.72908" lon="4.821">
        <ele>183</ele>
        <time>2016-09-20T05:49:41Z</time>
      </trkpt>
      <trkpt lat="45.72919" lon="4.82098">
        <ele>186</ele>
        <time>2016-09-20T05:49:47Z</time>
      </trkpt>
      <trkpt lat="45.72935" lon="4.82105">
        <ele>183</ele>
        <time>2016-09-20T05:49:54Z</time>
      </trkpt>
      <trkpt lat="45.72942" lon="4.82117">
        <ele>180</ele>
        <time>2016-09-20T05:49:58Z</time>
      </trkpt>
      <trkpt lat="45.72947" lon="4.82135">
        <ele>184</ele>
        <time>2016-09-20T05:50:03Z</time>
      </trkpt>
      <trkpt lat="45.72961" lon="4.82153">
        <ele>183</ele>
        <time>2016-09-20T05:50:11Z</time>
      </trkpt>
      <trkpt lat="45.72968" lon="4.82159">
        <ele>181</ele>
        <time>2016-09-20T05:50:15Z</time>
      </trkpt>
      <trkpt lat="45.72984" lon="4.82169">
        <ele>182</ele>
        <time>2016-09-20T05:50:23Z</time>
      </trkpt>
      <trkpt lat="45.73009" lon="4.82169">
        <ele>181</ele>
        <time>2016-09-20T05:50:29Z</time>
      </trkpt>
      <trkpt lat="45.73024" lon="4.82166">
        <ele>181</ele>
        <time>2016-09-20T05:50:36Z</time>
      </trkpt>
      <trkpt lat="45.73032" lon="4.82161">
        <ele>184</ele>
        <time>2016-09-20T05:50:39Z</time>
      </trkpt>
      <trkpt lat="45.73048" lon="4.82155">
        <ele>185</ele>
        <time>2016-09-20T05:50:45Z</time>
      </trkpt>
      <trkpt lat="45.73068" lon="4.82147">
        <ele>187</ele>
        <time>2016-09-20T05:50:55Z</time>
      </trkpt>
      <trkpt lat="45.73074" lon="4.82144">
        <ele>186</ele>
        <time>2016-09-20T05:50:58Z</time>
      </trkpt>
      <trkpt lat="45.73085" lon="4.82137">
        <ele>185</ele>
        <time>2016-09-20T05:51:03Z</time>
      </trkpt>
      <trkpt lat="45.73101" lon="4.82131">
        <ele>184</ele>
        <time>2016-09-20T05:51:09Z</time>
      </trkpt>
      <trkpt lat="45.73115" lon="4.8212">
        <ele>184</ele>
        <time>2016-09-20T05:51:15Z</time>
      </trkpt>
      <trkpt lat="45.73135" lon="4.82112">
        <ele>184</ele>
        <time>2016-09-20T05:51:23Z</time>
      </trkpt>
      <trkpt lat="45.73153" lon="4.82117">
        <ele>181</ele>
        <time>2016-09-20T05:51:31Z</time>
      </trkpt>
      <trkpt lat="45.73158" lon="4.82119">
        <ele>181</ele>
        <time>2016-09-20T05:51:33Z</time>
      </trkpt>
      <trkpt lat="45.73171" lon="4.82125">
        <ele>181</ele>
        <time>2016-09-20T05:51:39Z</time>
      </trkpt>
      <trkpt lat="45.7318" lon="4.82131">
        <ele>180</ele>
        <time>2016-09-20T05:51:45Z</time>
      </trkpt>
      <trkpt lat="45.7319" lon="4.82131">
        <ele>180</ele>
        <time>2016-09-20T05:51:51Z</time>
      </trkpt>
      <trkpt lat="45.73219" lon="4.82138">
        <ele>179</ele>
        <time>2016-09-20T05:52:02Z</time>
      </trkpt>
      <trkpt lat="45.73224" lon="4.82139">
        <ele>178</ele>
        <time>2016-09-20T05:52:04Z</time>
      </trkpt>
      <trkpt lat="45.73236" lon="4.8215">
        <ele>175</ele>
        <time>2016-09-20T05:52:11Z</time>
      </trkpt>
      <trkpt lat="45.73246" lon="4.82155">
        <ele>177</ele>
        <time>2016-09-20T05:52:15Z</time>
      </trkpt>
      <trkpt lat="45.73259" lon="4.82161">
        <ele>181</ele>
        <time>2016-09-20T05:52:22Z</time>
      </trkpt>
      <trkpt lat="45.73275" lon="4.82164">
        <ele>184</ele>
        <time>2016-09-20T05:52:30Z</time>
      </trkpt>
      <trkpt lat="45.73284" lon="4.82168">
        <ele>185</ele>
        <time>2016-09-20T05:52:33Z</time>
      </trkpt>
      <trkpt lat="45.733" lon="4.82181">
        <ele>182</ele>
        <time>2016-09-20T05:52:39Z</time>
      </trkpt>
      <trkpt lat="45.73342" lon="4.82187">
        <ele>182</ele>
        <time>2016-09-20T05:52:57Z</time>
      </trkpt>
      <trkpt lat="45.73355" lon="4.82187">
        <ele>183</ele>
        <time>2016-09-20T05:53:02Z</time>
      </trkpt>
      <trkpt lat="45.73367" lon="4.8219">
        <ele>183</ele>
        <time>2016-09-20T05:53:07Z</time>
      </trkpt>
      <trkpt lat="45.73378" lon="4.8219">
        <ele>187</ele>
        <time>2016-09-20T05:53:12Z</time>
      </trkpt>
      <trkpt lat="45.73387" lon="4.82194">
        <ele>184</ele>
        <time>2016-09-20T05:53:18Z</time>
      </trkpt>
      <trkpt lat="45.73405" lon="4.82199">
        <ele>185</ele>
        <time>2016-09-20T05:53:25Z</time>
      </trkpt>
      <trkpt lat="45.73425" lon="4.82209">
        <ele>181</ele>
        <time>2016-09-20T05:53:31Z</time>
      </trkpt>
      <trkpt lat="45.73438" lon="4.8221">
        <ele>178</ele>
        <time>2016-09-20T05:53:36Z</time>
      </trkpt>
      <trkpt lat="45.73447" lon="4.82208">
        <ele>179</ele>
        <time>2016-09-20T05:53:42Z</time>
      </trkpt>
      <trkpt lat="45.73467" lon="4.82205">
        <ele>177</ele>
        <time>2016-09-20T05:53:48Z</time>
      </trkpt>
      <trkpt lat="45.73488" lon="4.8222">
        <ele>175</ele>
        <time>2016-09-20T05:53:57Z</time>
      </trkpt>
      <trkpt lat="45.73498" lon="4.82224">
        <ele>177</ele>
        <time>2016-09-20T05:54:00Z</time>
      </trkpt>
      <trkpt lat="45.73519" lon="4.82242">
        <ele>174</ele>
        <time>2016-09-20T05:54:10Z</time>
      </trkpt>
      <trkpt lat="45.73523" lon="4.82244">
        <ele>175</ele>
        <time>2016-09-20T05:54:12Z</time>
      </trkpt>
      <trkpt lat="45.73527" lon="4.82253">
        <ele>174</ele>
        <time>2016-09-20T05:54:19Z</time>
      </trkpt>
      <trkpt lat="45.73536" lon="4.82261">
        <ele>174</ele>
        <time>2016-09-20T05:54:24Z</time>
      </trkpt>
      <trkpt lat="45.73546" lon="4.82271">
        <ele>172</ele>
        <time>2016-09-20T05:54:30Z</time>
      </trkpt>
      <trkpt lat="45.73576" lon="4.82283">
        <ele>175</ele>
        <time>2016-09-20T05:54:41Z</time>
      </trkpt>
      <trkpt lat="45.73586" lon="4.82292">
        <ele>176</ele>
        <time>2016-09-20T05:54:46Z</time>
      </trkpt>
      <trkpt lat="45.73601" lon="4.82302">
        <ele>176</ele>
        <time>2016-09-20T05:54:52Z</time>
      </trkpt>
      <trkpt lat="45.73604" lon="4.8231">
        <ele>171</ele>
        <time>2016-09-20T05:54:56Z</time>
      </trkpt>
      <trkpt lat="45.73612" lon="4.82317">
        <ele>173</ele>
        <time>2016-09-20T05:55:00Z</time>
      </trkpt>
      <trkpt lat="45.73642" lon="4.82332">
        <ele>175</ele>
        <time>2016-09-20T05:55:11Z</time>
      </trkpt>
      <trkpt lat="45.73644" lon="4.82332">
        <ele>175</ele>
        <time>2016-09-20T05:55:12Z</time>
      </trkpt>
      <trkpt lat="45.7366" lon="4.82341">
        <ele>176</ele>
        <time>2016-09-20T05:55:19Z</time>
      </trkpt>
      <trkpt lat="45.7367" lon="4.82346">
        <ele>177</ele>
        <time>2016-09-20T05:55:26Z</time>
      </trkpt>
      <trkpt lat="45.73676" lon="4.82353">
        <ele>176</ele>
        <time>2016-09-20T05:55:30Z</time>
      </trkpt>
      <trkpt lat="45.73704" lon="4.82372">
        <ele>172</ele>
        <time>2016-09-20T05:55:42Z</time>
      </trkpt>
      <trkpt lat="45.73707" lon="4.82373">
        <ele>171</ele>
        <time>2016-09-20T05:55:43Z</time>
      </trkpt>
      <trkpt lat="45.7373" lon="4.82385">
        <ele>177</ele>
        <time>2016-09-20T05:55:50Z</time>
      </trkpt>
      <trkpt lat="45.73742" lon="4.82393">
        <ele>174</ele>
        <time>2016-09-20T05:55:55Z</time>
      </trkpt>
      <trkpt lat="45.73754" lon="4.82402">
        <ele>173</ele>
        <time>2016-09-20T05:56:01Z</time>
      </trkpt>
      <trkpt lat="45.73757" lon="4.82418">
        <ele>170</ele>
        <time>2016-09-20T05:56:07Z</time>
      </trkpt>
      <trkpt lat="45.73771" lon="4.82428">
        <ele>173</ele>
        <time>2016-09-20T05:56:16Z</time>
      </trkpt>
      <trkpt lat="45.73785" lon="4.82439">
        <ele>175</ele>
        <time>2016-09-20T05:56:20Z</time>
      </trkpt>
      <trkpt lat="45.73806" lon="4.8245">
        <ele>176</ele>
        <time>2016-09-20T05:56:27Z</time>
      </trkpt>
      <trkpt lat="45.73817" lon="4.82457">
        <ele>178</ele>
        <time>2016-09-20T05:56:31Z</time>
      </trkpt>
      <trkpt lat="45.73843" lon="4.82473">
        <ele>177</ele>
        <time>2016-09-20T05:56:40Z</time>
      </trkpt>
      <trkpt lat="45.7385" lon="4.82481">
        <ele>176</ele>
        <time>2016-09-20T05:56:43Z</time>
      </trkpt>
      <trkpt lat="45.73863" lon="4.8249">
        <ele>176</ele>
        <time>2016-09-20T05:56:51Z</time>
      </trkpt>
      <trkpt lat="45.73869" lon="4.82499">
        <ele>174</ele>
        <time>2016-09-20T05:56:55Z</time>
      </trkpt>
      <trkpt lat="45.73893" lon="4.82518">
        <ele>174</ele>
        <time>2016-09-20T05:57:04Z</time>
      </trkpt>
      <trkpt lat="45.73899" lon="4.82524">
        <ele>177</ele>
        <time>2016-09-20T05:57:07Z</time>
      </trkpt>
      <trkpt lat="45.73911" lon="4.82537">
        <ele>176</ele>
        <time>2016-09-20T05:57:13Z</time>
      </trkpt>
      <trkpt lat="45.73922" lon="4.82542">
        <ele>175</ele>
        <time>2016-09-20T05:57:20Z</time>
      </trkpt>
      <trkpt lat="45.73936" lon="4.82556">
        <ele>179</ele>
        <time>2016-09-20T05:57:27Z</time>
      </trkpt>
      <trkpt lat="45.73955" lon="4.82569">
        <ele>181</ele>
        <time>2016-09-20T05:57:36Z</time>
      </trkpt>
      <trkpt lat="45.73958" lon="4.82573">
        <ele>179</ele>
        <time>2016-09-20T05:57:38Z</time>
      </trkpt>
      <trkpt lat="45.73972" lon="4.82589">
        <ele>180</ele>
        <time>2016-09-20T05:57:45Z</time>
      </trkpt>
      <trkpt lat="45.73984" lon="4.82596">
        <ele>184</ele>
        <time>2016-09-20T05:57:54Z</time>
      </trkpt>
      <trkpt lat="45.73985" lon="4.82598">
        <ele>184</ele>
        <time>2016-09-20T05:57:55Z</time>
      </trkpt>
      <trkpt lat="45.74" lon="4.82615">
        <ele>177</ele>
        <time>2016-09-20T05:58:05Z</time>
      </trkpt>
      <trkpt lat="45.74005" lon="4.8262">
        <ele>181</ele>
        <time>2016-09-20T05:58:07Z</time>
      </trkpt>
      <trkpt lat="45.74036" lon="4.82637">
        <ele>184</ele>
        <time>2016-09-20T05:58:17Z</time>
      </trkpt>
      <trkpt lat="45.74041" lon="4.82642">
        <ele>183</ele>
        <time>2016-09-20T05:58:19Z</time>
      </trkpt>
      <trkpt lat="45.74052" lon="4.82654">
        <ele>179</ele>
        <time>2016-09-20T05:58:25Z</time>
      </trkpt>
      <trkpt lat="45.7407" lon="4.82675">
        <ele>177</ele>
        <time>2016-09-20T05:58:36Z</time>
      </trkpt>
      <trkpt lat="45.74079" lon="4.82683">
        <ele>180</ele>
        <time>2016-09-20T05:58:41Z</time>
      </trkpt>
      <trkpt lat="45.74083" lon="4.82686">
        <ele>182</ele>
        <time>2016-09-20T05:58:43Z</time>
      </trkpt>
      <trkpt lat="45.74102" lon="4.82699">
        <ele>182</ele>
        <time>2016-09-20T05:58:53Z</time>
      </trkpt>
      <trkpt lat="45.74108" lon="4.82704">
        <ele>184</ele>
        <time>2016-09-20T05:58:56Z</time>
      </trkpt>
      <trkpt lat="45.74125" lon="4.82712">
        <ele>184</ele>
        <time>2016-09-20T05:59:01Z</time>
      </trkpt>
      <trkpt lat="45.74144" lon="4.82721">
        <ele>183</ele>
        <time>2016-09-20T05:59:07Z</time>
      </trkpt>
      <trkpt lat="45.74156" lon="4.82735">
        <ele>180</ele>
        <time>2016-09-20T05:59:13Z</time>
      </trkpt>
      <trkpt lat="45.74174" lon="4.82751">
        <ele>179</ele>
        <time>2016-09-20T05:59:22Z</time>
      </trkpt>
      <trkpt lat="45.74184" lon="4.82761">
        <ele>179</ele>
        <time>2016-09-20T05:59:28Z</time>
      </trkpt>
      <trkpt lat="45.74199" lon="4.82772">
        <ele>181</ele>
        <time>2016-09-20T05:59:35Z</time>
      </trkpt>
      <trkpt lat="45.74203" lon="4.82776">
        <ele>181</ele>
        <time>2016-09-20T05:59:37Z</time>
      </trkpt>
      <trkpt lat="45.7421" lon="4.82786">
        <ele>182</ele>
        <time>2016-09-20T05:59:43Z</time>
      </trkpt>
      <trkpt lat="45.74222" lon="4.82796">
        <ele>183</ele>
        <time>2016-09-20T05:59:49Z</time>
      </trkpt>
      <trkpt lat="45.74235" lon="4.82808">
        <ele>182</ele>
        <time>2016-09-20T05:59:55Z</time>
      </trkpt>
      <trkpt lat="45.74248" lon="4.82821">
        <ele>180</ele>
        <time>2016-09-20T06:00:01Z</time>
      </trkpt>
      <trkpt lat="45.74262" lon="4.82827">
        <ele>179</ele>
        <time>2016-09-20T06:00:07Z</time>
      </trkpt>
      <trkpt lat="45.74269" lon="4.82836">
        <ele>181</ele>
        <time>2016-09-20T06:00:13Z</time>
      </trkpt>
      <trkpt lat="45.74288" lon="4.82848">
        <ele>176</ele>
        <time>2016-09-20T06:00:21Z</time>
      </trkpt>
      <trkpt lat="45.74296" lon="4.82861">
        <ele>173</ele>
        <time>2016-09-20T06:00:27Z</time>
      </trkpt>
      <trkpt lat="45.74298" lon="4.82866">
        <ele>174</ele>
        <time>2016-09-20T06:00:31Z</time>
      </trkpt>
      <trkpt lat="45.74315" lon="4.82882">
        <ele>177</ele>
        <time>2016-09-20T06:00:38Z</time>
      </trkpt>
      <trkpt lat="45.74323" lon="4.82893">
        <ele>177</ele>
        <time>2016-09-20T06:00:43Z</time>
      </trkpt>
      <trkpt lat="45.74338" lon="4.82903">
        <ele>178</ele>
        <time>2016-09-20T06:00:49Z</time>
      </trkpt>
      <trkpt lat="45.74354" lon="4.82911">
        <ele>178</ele>
        <time>2016-09-20T06:01:00Z</time>
      </trkpt>
      <trkpt lat="45.74364" lon="4.82926">
        <ele>176</ele>
        <time>2016-09-20T06:01:06Z</time>
      </trkpt>
      <trkpt lat="45.74381" lon="4.8294">
        <ele>175</ele>
        <time>2016-09-20T06:01:12Z</time>
      </trkpt>
      <trkpt lat="45.74383" lon="4.82941">
        <ele>174</ele>
        <time>2016-09-20T06:01:13Z</time>
      </trkpt>
      <trkpt lat="45.74401" lon="4.82952">
        <ele>179</ele>
        <time>2016-09-20T06:01:20Z</time>
      </trkpt>
      <trkpt lat="45.74427" lon="4.82971">
        <ele>179</ele>
        <time>2016-09-20T06:01:30Z</time>
      </trkpt>
      <trkpt lat="45.74429" lon="4.82972">
        <ele>178</ele>
        <time>2016-09-20T06:01:31Z</time>
      </trkpt>
      <trkpt lat="45.74454" lon="4.82993">
        <ele>178</ele>
        <time>2016-09-20T06:01:42Z</time>
      </trkpt>
      <trkpt lat="45.74457" lon="4.82995">
        <ele>175</ele>
        <time>2016-09-20T06:01:43Z</time>
      </trkpt>
      <trkpt lat="45.74472" lon="4.83009">
        <ele>176</ele>
        <time>2016-09-20T06:01:49Z</time>
      </trkpt>
      <trkpt lat="45.74482" lon="4.8302">
        <ele>173</ele>
        <time>2016-09-20T06:01:55Z</time>
      </trkpt>
      <trkpt lat="45.74492" lon="4.8304">
        <ele>177</ele>
        <time>2016-09-20T06:02:05Z</time>
      </trkpt>
      <trkpt lat="45.74494" lon="4.83046">
        <ele>175</ele>
        <time>2016-09-20T06:02:07Z</time>
      </trkpt>
      <trkpt lat="45.74518" lon="4.83068">
        <ele>177</ele>
        <time>2016-09-20T06:02:17Z</time>
      </trkpt>
      <trkpt lat="45.74524" lon="4.83075">
        <ele>174</ele>
        <time>2016-09-20T06:02:21Z</time>
      </trkpt>
      <trkpt lat="45.74533" lon="4.83081">
        <ele>179</ele>
        <time>2016-09-20T06:02:25Z</time>
      </trkpt>
      <trkpt lat="45.74551" lon="4.83101">
        <ele>183</ele>
        <time>2016-09-20T06:02:33Z</time>
      </trkpt>
      <trkpt lat="45.74557" lon="4.83112">
        <ele>183</ele>
        <time>2016-09-20T06:02:37Z</time>
      </trkpt>
      <trkpt lat="45.74565" lon="4.83124">
        <ele>181</ele>
        <time>2016-09-20T06:02:43Z</time>
      </trkpt>
      <trkpt lat="45.74577" lon="4.83142">
        <ele>180</ele>
        <time>2016-09-20T06:02:49Z</time>
      </trkpt>
      <trkpt lat="45.74591" lon="4.83156">
        <ele>179</ele>
        <time>2016-09-20T06:02:55Z</time>
      </trkpt>
      <trkpt lat="45.74607" lon="4.83165">
        <ele>179</ele>
        <time>2016-09-20T06:03:06Z</time>
      </trkpt>
      <trkpt lat="45.74608" lon="4.83165">
        <ele>180</ele>
        <time>2016-09-20T06:03:07Z</time>
      </trkpt>
      <trkpt lat="45.74628" lon="4.83178">
        <ele>185</ele>
        <time>2016-09-20T06:03:18Z</time>
      </trkpt>
      <trkpt lat="45.74638" lon="4.83189">
        <ele>182</ele>
        <time>2016-09-20T06:03:22Z</time>
      </trkpt>
      <trkpt lat="45.74645" lon="4.83193">
        <ele>177</ele>
        <time>2016-09-20T06:03:25Z</time>
      </trkpt>
      <trkpt lat="45.74659" lon="4.83201">
        <ele>177</ele>
        <time>2016-09-20T06:03:31Z</time>
      </trkpt>
      <trkpt lat="45.74674" lon="4.83217">
        <ele>175</ele>
        <time>2016-09-20T06:03:38Z</time>
      </trkpt>
      <trkpt lat="45.74689" lon="4.83229">
        <ele>170</ele>
        <time>2016-09-20T06:03:47Z</time>
      </trkpt>
      <trkpt lat="45.74709" lon="4.83243">
        <ele>171</ele>
        <time>2016-09-20T06:03:53Z</time>
      </trkpt>
      <trkpt lat="45.74715" lon="4.83251">
        <ele>170</ele>
        <time>2016-09-20T06:03:57Z</time>
      </trkpt>
      <trkpt lat="45.7473" lon="4.83266">
        <ele>174</ele>
        <time>2016-09-20T06:04:06Z</time>
      </trkpt>
      <trkpt lat="45.74732" lon="4.83267">
        <ele>174</ele>
        <time>2016-09-20T06:04:07Z</time>
      </trkpt>
      <trkpt lat="45.74745" lon="4.83275">
        <ele>177</ele>
        <time>2016-09-20T06:04:14Z</time>
      </trkpt>
      <trkpt lat="45.74755" lon="4.83284">
        <ele>182</ele>
        <time>2016-09-20T06:04:19Z</time>
      </trkpt>
      <trkpt lat="45.74767" lon="4.83295">
        <ele>180</ele>
        <time>2016-09-20T06:04:25Z</time>
      </trkpt>
      <trkpt lat="45.74781" lon="4.83306">
        <ele>177</ele>
        <time>2016-09-20T06:04:32Z</time>
      </trkpt>
      <trkpt lat="45.7479" lon="4.83312">
        <ele>176</ele>
        <time>2016-09-20T06:04:38Z</time>
      </trkpt>
      <trkpt lat="45.74811" lon="4.83323">
        <ele>168</ele>
        <time>2016-09-20T06:04:49Z</time>
      </trkpt>
      <trkpt lat="45.74827" lon="4.83334">
        <ele>174</ele>
        <time>2016-09-20T06:04:55Z</time>
      </trkpt>
      <trkpt lat="45.74847" lon="4.83352">
        <ele>180</ele>
        <time>2016-09-20T06:05:01Z</time>
      </trkpt>
      <trkpt lat="45.74857" lon="4.83362">
        <ele>188</ele>
        <time>2016-09-20T06:05:05Z</time>
      </trkpt>
      <trkpt lat="45.74874" lon="4.83373">
        <ele>184</ele>
        <time>2016-09-20T06:05:11Z</time>
      </trkpt>
      <trkpt lat="45.74877" lon="4.83376">
        <ele>185</ele>
        <time>2016-09-20T06:05:14Z</time>
      </trkpt>
      <trkpt lat="45.74887" lon="4.83383">
        <ele>181</ele>
        <time>2016-09-20T06:05:20Z</time>
      </trkpt>
      <trkpt lat="45.749" lon="4.83393">
        <ele>179</ele>
        <time>2016-09-20T06:05:26Z</time>
      </trkpt>
      <trkpt lat="45.74914" lon="4.83405">
        <ele>180</ele>
        <time>2016-09-20T06:05:34Z</time>
      </trkpt>
      <trkpt lat="45.74923" lon="4.83414">
        <ele>180</ele>
        <time>2016-09-20T06:05:40Z</time>
      </trkpt>
      <trkpt lat="45.74929" lon="4.83424">
        <ele>177</ele>
        <time>2016-09-20T06:05:44Z</time>
      </trkpt>
      <trkpt lat="45.74955" lon="4.83443">
        <ele>181</ele>
        <time>2016-09-20T06:05:54Z</time>
      </trkpt>
      <trkpt lat="45.74961" lon="4.83447">
        <ele>182</ele>
        <time>2016-09-20T06:05:57Z</time>
      </trkpt>
      <trkpt lat="45.7497" lon="4.83453">
        <ele>178</ele>
        <time>2016-09-20T06:06:02Z</time>
      </trkpt>
      <trkpt lat="45.74986" lon="4.83462">
        <ele>181</ele>
        <time>2016-09-20T06:06:08Z</time>
      </trkpt>
      <trkpt lat="45.75" lon="4.83474">
        <ele>179</ele>
        <time>2016-09-20T06:06:14Z</time>
      </trkpt>
      <trkpt lat="45.75014" lon="4.83487">
        <ele>185</ele>
        <time>2016-09-20T06:06:20Z</time>
      </trkpt>
      <trkpt lat="45.75019" lon="4.83499">
        <ele>177</ele>
        <time>2016-09-20T06:06:26Z</time>
      </trkpt>
      <trkpt lat="45.75028" lon="4.83511">
        <ele>176</ele>
        <time>2016-09-20T06:06:32Z</time>
      </trkpt>
      <trkpt lat="45.75042" lon="4.83526">
        <ele>183</ele>
        <time>2016-09-20T06:06:38Z</time>
      </trkpt>
      <trkpt lat="45.75053" lon="4.83543">
        <ele>185</ele>
        <time>2016-09-20T06:06:44Z</time>
      </trkpt>
      <trkpt lat="45.75055" lon="4.8356">
        <ele>184</ele>
        <time>2016-09-20T06:06:50Z</time>
      </trkpt>
      <trkpt lat="45.75068" lon="4.83575">
        <ele>184</ele>
        <time>2016-09-20T06:06:56Z</time>
      </trkpt>
      <trkpt lat="45.75085" lon="4.83584">
        <ele>187</ele>
        <time>2016-09-20T06:07:03Z</time>
      </trkpt>
      <trkpt lat="45.75102" lon="4.83588">
        <ele>189</ele>
        <time>2016-09-20T06:07:08Z</time>
      </trkpt>
      <trkpt lat="45.75111" lon="4.83603">
        <ele>193</ele>
        <time>2016-09-20T06:07:14Z</time>
      </trkpt>
      <trkpt lat="45.75126" lon="4.83622">
        <ele>193</ele>
        <time>2016-09-20T06:07:22Z</time>
      </trkpt>
      <trkpt lat="45.75136" lon="4.83631">
        <ele>196</ele>
        <time>2016-09-20T06:07:27Z</time>
      </trkpt>
      <trkpt lat="45.75144" lon="4.83635">
        <ele>192</ele>
        <time>2016-09-20T06:07:32Z</time>
      </trkpt>
      <trkpt lat="45.75159" lon="4.83649">
        <ele>186</ele>
        <time>2016-09-20T06:07:41Z</time>
      </trkpt>
      <trkpt lat="45.75164" lon="4.83656">
        <ele>184</ele>
        <time>2016-09-20T06:07:44Z</time>
      </trkpt>
      <trkpt lat="45.75177" lon="4.83671">
        <ele>183</ele>
        <time>2016-09-20T06:07:52Z</time>
      </trkpt>
      <trkpt lat="45.75195" lon="4.83678">
        <ele>186</ele>
        <time>2016-09-20T06:08:01Z</time>
      </trkpt>
      <trkpt lat="45.75196" lon="4.83679">
        <ele>186</ele>
        <time>2016-09-20T06:08:03Z</time>
      </trkpt>
      <trkpt lat="45.75196" lon="4.83679">
        <ele>186</ele>
        <time>2016-09-20T06:08:08Z</time>
      </trkpt>
      <trkpt lat="45.75204" lon="4.83678">
        <ele>186</ele>
        <time>2016-09-20T06:08:14Z</time>
      </trkpt>
      <trkpt lat="45.75211" lon="4.83656">
        <ele>190</ele>
        <time>2016-09-20T06:08:20Z</time>
      </trkpt>
      <trkpt lat="45.75223" lon="4.83623">
        <ele>186</ele>
        <time>2016-09-20T06:08:29Z</time>
      </trkpt>
      <trkpt lat="45.75231" lon="4.83607">
        <ele>186</ele>
        <time>2016-09-20T06:08:34Z</time>
      </trkpt>
      <trkpt lat="45.75234" lon="4.83598">
        <ele>184</ele>
        <time>2016-09-20T06:08:38Z</time>
      </trkpt>
      <trkpt lat="45.75247" lon="4.83577">
        <ele>184</ele>
        <time>2016-09-20T06:08:45Z</time>
      </trkpt>
      <trkpt lat="45.75255" lon="4.83562">
        <ele>183</ele>
        <time>2016-09-20T06:08:50Z</time>
      </trkpt>
      <trkpt lat="45.75261" lon="4.83548">
        <ele>185</ele>
        <time>2016-09-20T06:08:56Z</time>
      </trkpt>
      <trkpt lat="45.75267" lon="4.83531">
        <ele>183</ele>
        <time>2016-09-20T06:09:02Z</time>
      </trkpt>
      <trkpt lat="45.75278" lon="4.83499">
        <ele>183</ele>
        <time>2016-09-20T06:09:13Z</time>
      </trkpt>
      <trkpt lat="45.75278" lon="4.83494">
        <ele>184</ele>
        <time>2016-09-20T06:09:15Z</time>
      </trkpt>
      <trkpt lat="45.75287" lon="4.83471">
        <ele>181</ele>
        <time>2016-09-20T06:09:23Z</time>
      </trkpt>
      <trkpt lat="45.75301" lon="4.83444">
        <ele>181</ele>
        <time>2016-09-20T06:09:32Z</time>
      </trkpt>
      <trkpt lat="45.75303" lon="4.8344">
        <ele>182</ele>
        <time>2016-09-20T06:09:33Z</time>
      </trkpt>
      <trkpt lat="45.75312" lon="4.83419">
        <ele>177</ele>
        <time>2016-09-20T06:09:43Z</time>
      </trkpt>
      <trkpt lat="45.75312" lon="4.83415">
        <ele>176</ele>
        <time>2016-09-20T06:09:49Z</time>
      </trkpt>
      <trkpt lat="45.75312" lon="4.83416">
        <ele>175</ele>
        <time>2016-09-20T06:09:52Z</time>
      </trkpt>
      <trkpt lat="45.75311" lon="4.83417">
        <ele>174</ele>
        <time>2016-09-20T06:09:57Z</time>
      </trkpt>
      <trkpt lat="45.75307" lon="4.83401">
        <ele>173</ele>
        <time>2016-09-20T06:10:03Z</time>
      </trkpt>
      <trkpt lat="45.75316" lon="4.83374">
        <ele>172</ele>
        <time>2016-09-20T06:10:09Z</time>
      </trkpt>
      <trkpt lat="45.75339" lon="4.83352">
        <ele>174</ele>
        <time>2016-09-20T06:10:19Z</time>
      </trkpt>
      <trkpt lat="45.75342" lon="4.83349">
        <ele>174</ele>
        <time>2016-09-20T06:10:21Z</time>
      </trkpt>
      <trkpt lat="45.75349" lon="4.8333">
        <ele>172</ele>
        <time>2016-09-20T06:10:27Z</time>
      </trkpt>
      <trkpt lat="45.7536" lon="4.83307">
        <ele>174</ele>
        <time>2016-09-20T06:10:36Z</time>
      </trkpt>
      <trkpt lat="45.75364" lon="4.833">
        <ele>174</ele>
        <time>2016-09-20T06:10:39Z</time>
      </trkpt>
      <trkpt lat="45.75379" lon="4.83288">
        <ele>181</ele>
        <time>2016-09-20T06:10:45Z</time>
      </trkpt>
      <trkpt lat="45.7539" lon="4.83272">
        <ele>185</ele>
        <time>2016-09-20T06:10:51Z</time>
      </trkpt>
      <trkpt lat="45.75394" lon="4.83215">
        <ele>180</ele>
        <time>2016-09-20T06:11:08Z</time>
      </trkpt>
      <trkpt lat="45.75396" lon="4.83213">
        <ele>180</ele>
        <time>2016-09-20T06:11:09Z</time>
      </trkpt>
      <trkpt lat="45.75407" lon="4.83201">
        <ele>176</ele>
        <time>2016-09-20T06:11:15Z</time>
      </trkpt>
      <trkpt lat="45.75418" lon="4.83156">
        <ele>175</ele>
        <time>2016-09-20T06:11:25Z</time>
      </trkpt>
      <trkpt lat="45.75415" lon="4.83141">
        <ele>176</ele>
        <time>2016-09-20T06:11:28Z</time>
      </trkpt>
      <trkpt lat="45.75453" lon="4.83009">
        <ele>184</ele>
        <time>2016-09-20T06:12:33Z</time>
      </trkpt>
    </trkseg>
  </trk>
</gpx>